createdAt,value
2022-11-23T00:00:06.429Z,21.17
2022-11-23T00:01:15.584Z,20.27
2022-11-23T00:02:18.701Z,20.98
2022-11-23T00:03:20.747Z,20.27
2022-11-23T00:04:25.791Z,20.05
2022-11-23T00:05:29.372Z,21.05
2022-11-23T00:06:32.969Z,20.50
2022-11-23T00:07:36.397Z,21.08
2022-11-23T00:08:39.698Z,19.85
2022-11-23T00:09:41.802Z,20.90
2022-11-23T00:10:44.835Z,20.35
2022-11-23T00:11:46.904Z,20.10
2022-11-23T00:12:50.693Z,20.20
2022-11-23T00:13:53.201Z,20.10
2022-11-23T00:14:56.266Z,19.23
2022-11-23T00:15:58.354Z,20.13
2022-11-23T00:17:01.575Z,20.63
2022-11-23T00:18:03.825Z,20.67
2022-11-23T00:19:06.905Z,21.65
2022-11-23T00:20:09.785Z,19.83
2022-11-23T00:21:14.485Z,20.02
2022-11-23T00:22:17.629Z,20.88
2022-11-23T00:23:21.015Z,19.65
2022-11-23T00:24:24.063Z,20.15
2022-11-23T00:25:26.125Z,19.80
2022-11-23T00:26:29.209Z,19.80
2022-11-23T00:27:31.384Z,20.88
2022-11-23T00:28:38.801Z,20.65
2022-11-23T00:29:42.223Z,19.40
2022-11-23T00:30:49.890Z,21.25
2022-11-23T00:31:53.200Z,19.98
2022-11-23T00:32:56.553Z,20.20
2022-11-23T00:34:00.555Z,19.95
2022-11-23T00:35:02.605Z,20.05
2022-11-23T00:36:09.046Z,19.83
2022-11-23T00:37:11.987Z,20.80
2022-11-23T00:38:15.656Z,20.13
2022-11-23T00:39:19.361Z,19.88
2022-11-23T00:40:22.592Z,20.58
2022-11-23T00:41:27.868Z,19.83
2022-11-23T00:42:35.186Z,19.95
2022-11-23T00:43:40.672Z,20.83
2022-11-23T00:44:43.907Z,20.80
2022-11-23T00:45:46.181Z,21.27
2022-11-23T00:46:49.657Z,20.30
2022-11-23T00:47:51.729Z,19.98
2022-11-23T00:48:56.732Z,20.63
2022-11-23T00:50:00.489Z,19.52
2022-11-23T00:51:04.957Z,20.48
2022-11-23T00:52:12.126Z,20.23
2022-11-23T00:53:14.242Z,21.55
2022-11-23T00:54:17.646Z,20.83
2022-11-23T00:55:21.238Z,20.30
2022-11-23T00:56:24.405Z,20.13
2022-11-23T00:57:26.535Z,18.65
2022-11-23T00:58:30.513Z,20.80
2022-11-23T00:59:34.916Z,20.27
2022-11-23T01:00:38.469Z,20.33
2022-11-23T01:01:41.091Z,20.48
2022-11-23T01:02:44.870Z,20.73
2022-11-23T01:03:48.806Z,19.95
2022-11-23T01:04:51.936Z,19.48
2022-11-23T01:05:56.367Z,19.92
2022-11-23T01:06:59.568Z,21.00
2022-11-23T01:08:02.954Z,22.20
2022-11-23T01:09:10.015Z,20.88
2022-11-23T01:10:12.517Z,20.85
2022-11-23T01:11:18.550Z,20.48
2022-11-23T01:12:20.680Z,20.48
2022-11-23T01:13:23.966Z,19.75
2022-11-23T01:14:26.066Z,20.40
2022-11-23T01:15:29.260Z,19.98
2022-11-23T01:16:33.263Z,20.17
2022-11-23T01:17:36.470Z,20.20
2022-11-23T01:18:38.812Z,19.52
2022-11-23T01:19:42.018Z,20.27
2022-11-23T01:20:44.256Z,19.98
2022-11-23T01:21:47.435Z,20.92
2022-11-23T01:22:51.805Z,21.27
2022-11-23T01:23:55.711Z,20.75
2022-11-23T01:24:57.882Z,20.30
2022-11-23T01:26:06.733Z,20.10
2022-11-23T01:27:10.329Z,20.13
2022-11-23T01:28:13.577Z,20.95
2022-11-23T01:29:15.741Z,20.33
2022-11-23T01:30:18.929Z,19.55
2022-11-23T01:31:23.524Z,18.83
2022-11-23T01:32:26.701Z,18.80
2022-11-23T01:33:28.848Z,19.00
2022-11-23T01:34:32.050Z,20.85
2022-11-23T01:35:34.547Z,19.38
2022-11-23T01:36:37.735Z,19.42
2022-11-23T01:37:39.976Z,19.92
2022-11-23T01:38:43.918Z,20.70
2022-11-23T01:39:46.139Z,20.35
2022-11-23T01:40:49.259Z,19.85
2022-11-23T01:41:51.423Z,19.85
2022-11-23T01:42:58.796Z,19.75
2022-11-23T01:44:01.582Z,19.70
2022-11-23T01:45:36.411Z,20.20
2022-11-23T01:46:39.937Z,18.73
2022-11-23T01:47:42.097Z,20.05
2022-11-23T01:48:48.570Z,18.70
2022-11-23T01:49:53.305Z,19.50
2022-11-23T01:50:58.654Z,19.70
2022-11-23T01:52:07.400Z,20.70
2022-11-23T01:53:09.707Z,18.58
2022-11-23T01:54:16.304Z,19.55
2022-11-23T01:55:18.829Z,19.23
2022-11-23T01:56:28.597Z,19.40
2022-11-23T01:57:37.740Z,19.70
2022-11-23T01:58:46.745Z,18.15
2022-11-23T01:59:49.870Z,19.15
2022-11-23T02:00:53.692Z,18.70
2022-11-23T02:01:55.949Z,18.95
2022-11-23T02:03:02.172Z,18.85
2022-11-23T02:04:07.695Z,19.85
2022-11-23T02:05:12.104Z,17.65
2022-11-23T02:06:17.280Z,19.50
2022-11-23T02:07:22.340Z,18.77
2022-11-23T02:08:26.717Z,18.98
2022-11-23T02:09:33.016Z,19.70
2022-11-23T02:10:36.503Z,18.55
2022-11-23T02:11:39.638Z,19.30
2022-11-23T02:12:41.786Z,18.20
2022-11-23T02:13:48.757Z,19.33
2022-11-23T02:14:51.009Z,18.35
2022-11-23T02:15:57.271Z,17.95
2022-11-23T02:16:59.907Z,19.27
2022-11-23T02:18:07.073Z,19.10
2022-11-23T02:19:26.643Z,18.60
2022-11-23T02:20:30.018Z,18.77
2022-11-23T02:21:32.194Z,18.52
2022-11-23T02:22:48.854Z,17.92
2022-11-23T02:23:57.534Z,18.58
2022-11-23T02:25:03.540Z,18.50
2022-11-23T02:26:11.370Z,19.63
2022-11-23T02:27:17.039Z,17.58
2022-11-23T02:28:24.420Z,19.05
2022-11-23T02:29:29.803Z,18.58
2022-11-23T02:30:36.897Z,18.60
2022-11-23T02:31:40.374Z,18.13
2022-11-23T02:32:43.463Z,19.42
2022-11-23T02:33:46.701Z,18.63
2022-11-23T02:34:49.074Z,19.00
2022-11-23T02:35:54.803Z,18.13
2022-11-23T02:36:58.377Z,19.30
2022-11-23T02:38:03.557Z,18.45
2022-11-23T02:39:12.545Z,19.35
2022-11-23T02:40:24.801Z,19.42
2022-11-23T02:41:28.388Z,18.08
2022-11-23T02:42:33.065Z,19.10
2022-11-23T02:43:35.572Z,18.13
2022-11-23T02:44:43.630Z,18.63
2022-11-23T02:45:50.844Z,18.70
2022-11-23T02:46:55.140Z,18.75
2022-11-23T02:47:57.307Z,18.50
2022-11-23T02:49:00.480Z,18.52
2022-11-23T02:50:04.323Z,19.48
2022-11-23T02:51:06.790Z,18.75
2022-11-23T02:52:10.793Z,19.63
2022-11-23T02:53:13.727Z,19.35
2022-11-23T02:54:18.662Z,19.40
2022-11-23T02:55:20.917Z,19.60
2022-11-23T02:56:24.079Z,18.92
2022-11-23T02:57:27.672Z,19.05
2022-11-23T02:58:30.785Z,19.33
2022-11-23T02:59:34.244Z,18.95
2022-11-23T03:00:37.977Z,20.27
2022-11-23T03:01:40.407Z,19.90
2022-11-23T03:02:43.564Z,18.48
2022-11-23T03:03:47.115Z,19.48
2022-11-23T03:04:50.262Z,19.60
2022-11-23T03:05:55.549Z,18.75
2022-11-23T03:06:59.318Z,19.02
2022-11-23T03:08:01.634Z,18.30
2022-11-23T03:09:06.164Z,19.70
2022-11-23T03:10:09.583Z,19.85
2022-11-23T03:11:12.941Z,18.92
2022-11-23T03:12:16.404Z,19.58
2022-11-23T03:13:21.035Z,20.02
2022-11-23T03:14:23.200Z,19.25
2022-11-23T03:15:33.635Z,18.52
2022-11-23T03:16:37.991Z,18.40
2022-11-23T03:17:41.252Z,18.48
2022-11-23T03:18:47.002Z,19.98
2022-11-23T03:19:50.216Z,18.73
2022-11-23T03:20:53.273Z,20.00
2022-11-23T03:21:56.394Z,18.95
2022-11-23T03:22:58.520Z,19.58
2022-11-23T03:24:02.891Z,17.92
2022-11-23T03:25:05.978Z,19.10
2022-11-23T03:26:13.049Z,19.20
2022-11-23T03:27:25.362Z,18.90
2022-11-23T03:28:29.808Z,19.27
2022-11-23T03:29:33.712Z,19.30
2022-11-23T03:30:43.565Z,19.23
2022-11-23T03:31:46.716Z,17.98
2022-11-23T03:32:50.570Z,18.75
2022-11-23T03:33:55.066Z,19.88
2022-11-23T03:35:00.461Z,19.17
2022-11-23T03:36:03.796Z,19.00
2022-11-23T03:37:11.886Z,18.35
2022-11-23T03:38:14.149Z,18.80
2022-11-23T03:39:18.479Z,18.00
2022-11-23T03:40:40.609Z,17.33
2022-11-23T03:41:58.062Z,18.88
2022-11-23T03:43:07.399Z,18.88
2022-11-23T03:44:11.003Z,18.60
2022-11-23T03:45:14.217Z,18.25
2022-11-23T03:46:16.495Z,18.38
2022-11-23T03:47:19.642Z,18.52
2022-11-23T03:48:21.913Z,18.30
2022-11-23T03:49:25.645Z,18.52
2022-11-23T03:50:29.846Z,17.50
2022-11-23T03:51:33.119Z,18.40
2022-11-23T03:52:35.712Z,18.30
2022-11-23T03:53:39.043Z,18.58
2022-11-23T03:54:41.267Z,17.38
2022-11-23T03:55:47.163Z,18.50
2022-11-23T03:56:49.955Z,17.63
2022-11-23T03:57:54.501Z,17.80
2022-11-23T03:58:56.810Z,18.35
2022-11-23T04:00:01.439Z,17.25
2022-11-23T04:01:03.890Z,17.92
2022-11-23T04:02:08.103Z,17.13
2022-11-23T04:03:16.894Z,16.88
2022-11-23T04:04:40.316Z,16.75
2022-11-23T04:05:47.201Z,17.17
2022-11-23T04:08:26.704Z,16.77
2022-11-23T04:09:31.647Z,16.25
2022-11-23T04:10:40.980Z,16.50
2022-11-23T04:11:53.915Z,17.23
2022-11-23T04:12:56.138Z,17.67
2022-11-23T04:13:59.666Z,17.02
2022-11-23T04:15:03.711Z,17.15
2022-11-23T04:16:08.274Z,17.55
2022-11-23T04:17:10.571Z,17.02
2022-11-23T04:18:14.045Z,17.13
2022-11-23T04:19:16.484Z,17.63
2022-11-23T04:20:19.636Z,17.02
2022-11-23T04:21:21.777Z,17.13
2022-11-23T04:22:25.023Z,16.85
2022-11-23T04:23:28.011Z,18.50
2022-11-23T04:24:31.318Z,16.80
2022-11-23T04:25:35.895Z,17.08
2022-11-23T04:26:40.498Z,17.92
2022-11-23T04:27:44.892Z,16.30
2022-11-23T04:28:49.075Z,16.80
2022-11-23T04:29:51.740Z,17.35
2022-11-23T04:30:58.810Z,17.45
2022-11-23T04:32:02.013Z,15.88
2022-11-23T04:33:05.348Z,17.30
2022-11-23T04:34:08.226Z,16.50
2022-11-23T04:35:11.668Z,15.85
2022-11-23T04:36:15.209Z,16.30
2022-11-23T04:37:17.862Z,17.42
2022-11-23T04:38:21.172Z,16.30
2022-11-23T04:39:23.817Z,16.85
2022-11-23T04:40:48.601Z,16.35
2022-11-23T04:41:51.227Z,16.50
2022-11-23T04:43:00.324Z,16.00
2022-11-23T04:44:06.756Z,16.95
2022-11-23T04:45:11.524Z,16.63
2022-11-23T04:46:16.281Z,16.23
2022-11-23T04:47:20.248Z,15.95
2022-11-23T04:48:24.661Z,16.95
2022-11-23T04:49:29.270Z,16.02
2022-11-23T04:50:34.151Z,16.75
2022-11-23T04:51:37.684Z,16.02
2022-11-23T04:52:40.113Z,15.82
2022-11-23T04:53:49.669Z,16.33
2022-11-23T04:54:51.897Z,16.83
2022-11-23T04:55:55.151Z,15.73
2022-11-23T04:56:57.746Z,15.82
2022-11-23T04:58:01.068Z,15.68
2022-11-23T04:59:07.350Z,16.17
2022-11-23T05:00:11.733Z,16.48
2022-11-23T05:01:16.515Z,17.45
2022-11-23T05:02:38.740Z,18.08
2022-11-23T05:03:51.409Z,17.73
2022-11-23T05:04:53.726Z,18.45
2022-11-23T05:06:00.097Z,18.48
2022-11-23T05:07:08.824Z,17.90
2022-11-23T05:08:13.974Z,18.92
2022-11-23T05:09:45.481Z,17.95
2022-11-23T05:10:52.084Z,17.25
2022-11-23T05:11:54.739Z,17.42
2022-11-23T05:12:57.926Z,17.08
2022-11-23T05:14:00.286Z,17.30
2022-11-23T05:15:05.450Z,16.63
2022-11-23T05:16:12.524Z,16.65
2022-11-23T05:17:17.140Z,16.20
2022-11-23T05:18:22.191Z,17.17
2022-11-23T05:19:25.412Z,16.52
2022-11-23T05:20:28.693Z,16.42
2022-11-23T05:21:30.984Z,16.05
2022-11-23T05:22:35.103Z,16.98
2022-11-23T05:23:38.331Z,16.50
2022-11-23T05:24:40.566Z,16.42
2022-11-23T05:25:47.136Z,15.75
2022-11-23T05:26:56.075Z,16.17
2022-11-23T05:28:07.523Z,16.33
2022-11-23T05:29:21.755Z,16.27
2022-11-23T05:30:25.890Z,16.27
2022-11-23T05:31:28.061Z,15.68
2022-11-23T05:32:32.698Z,15.88
2022-11-23T05:33:37.470Z,16.48
2022-11-23T05:34:40.742Z,15.60
2022-11-23T05:35:45.876Z,15.90
2022-11-23T05:36:48.120Z,15.90
2022-11-23T05:37:52.205Z,15.43
2022-11-23T05:38:54.350Z,15.85
2022-11-23T05:40:03.910Z,16.95
2022-11-23T05:41:07.063Z,16.27
2022-11-23T05:42:10.498Z,16.13
2022-11-23T05:43:17.293Z,15.80
2022-11-23T05:44:19.625Z,16.45
2022-11-23T05:45:23.135Z,16.15
2022-11-23T05:46:29.524Z,16.05
2022-11-23T05:47:33.070Z,16.60
2022-11-23T05:48:36.661Z,16.75
2022-11-23T05:49:44.150Z,16.30
2022-11-23T05:50:47.893Z,15.90
2022-11-23T05:52:09.047Z,15.68
2022-11-23T05:53:13.054Z,16.20
2022-11-23T05:54:17.518Z,16.45
2022-11-23T05:55:27.553Z,15.38
2022-11-23T05:56:32.049Z,16.40
2022-11-23T05:57:59.395Z,16.27
2022-11-23T05:59:01.604Z,16.42
2022-11-23T06:00:05.528Z,15.95
2022-11-23T06:01:20.956Z,15.73
2022-11-23T06:02:24.185Z,15.57
2022-11-23T06:03:32.548Z,16.50
2022-11-23T06:04:36.160Z,15.55
2022-11-23T06:05:40.660Z,16.20
2022-11-23T06:06:43.860Z,16.83
2022-11-23T06:07:46.145Z,15.85
2022-11-23T06:08:49.755Z,16.42
2022-11-23T06:09:54.033Z,15.40
2022-11-23T06:10:56.318Z,15.98
2022-11-23T06:11:59.816Z,16.10
2022-11-23T06:13:03.737Z,15.73
2022-11-23T06:14:12.777Z,15.82
2022-11-23T06:15:17.122Z,15.98
2022-11-23T06:16:22.105Z,16.65
2022-11-23T06:17:37.765Z,15.07
2022-11-23T06:18:46.574Z,15.00
2022-11-23T06:19:48.769Z,16.20
2022-11-23T06:20:52.048Z,16.05
2022-11-23T06:21:54.294Z,15.38
2022-11-23T06:22:58.473Z,15.38
2022-11-23T06:24:01.521Z,15.02
2022-11-23T06:25:08.080Z,15.15
2022-11-23T06:26:19.660Z,15.00
2022-11-23T06:27:22.914Z,14.68
2022-11-23T06:28:27.193Z,15.50
2022-11-23T06:29:31.828Z,15.20
2022-11-23T06:30:35.175Z,15.25
2022-11-23T06:31:41.554Z,14.50
2022-11-23T06:32:44.829Z,15.00
2022-11-23T06:33:49.533Z,14.65
2022-11-23T06:34:51.745Z,14.73
2022-11-23T06:35:56.665Z,14.93
2022-11-23T06:37:02.840Z,14.05
2022-11-23T06:38:05.303Z,14.10
2022-11-23T06:39:09.403Z,15.27
2022-11-23T06:40:12.496Z,14.30
2022-11-23T06:41:16.674Z,14.35
2022-11-23T06:43:49.468Z,14.10
2022-11-23T06:45:06.533Z,14.25
2022-11-23T06:46:09.797Z,14.35
2022-11-23T06:47:17.766Z,14.57
2022-11-23T06:48:23.639Z,14.55
2022-11-23T06:49:29.045Z,14.20
2022-11-23T06:50:49.952Z,13.90
2022-11-23T06:51:54.557Z,13.88
2022-11-23T06:52:57.623Z,14.88
2022-11-23T06:54:12.922Z,14.07
2022-11-23T06:55:16.373Z,14.38
2022-11-23T06:56:19.719Z,15.05
2022-11-23T06:57:22.223Z,14.82
2022-11-23T06:58:25.705Z,15.07
2022-11-23T06:59:28.034Z,15.05
2022-11-23T07:00:31.498Z,15.32
2022-11-23T07:01:33.674Z,15.10
2022-11-23T07:02:41.707Z,14.82
2022-11-23T07:03:44.993Z,15.07
2022-11-23T07:05:11.984Z,14.00
2022-11-23T07:06:14.250Z,15.13
2022-11-23T07:07:18.242Z,14.35
2022-11-23T07:08:27.715Z,13.88
2022-11-23T07:09:32.744Z,14.65
2022-11-23T07:10:50.054Z,14.02
2022-11-23T07:11:52.919Z,14.13
2022-11-23T07:12:56.167Z,13.75
2022-11-23T07:14:01.072Z,14.55
2022-11-23T07:15:06.583Z,14.30
2022-11-23T07:16:12.535Z,14.65
2022-11-23T07:17:17.432Z,14.75
2022-11-23T07:18:21.380Z,14.10
2022-11-23T07:19:29.944Z,14.20
2022-11-23T07:20:36.921Z,13.48
2022-11-23T07:21:41.409Z,14.45
2022-11-23T07:22:43.559Z,13.27
2022-11-23T07:23:46.723Z,13.85
2022-11-23T07:24:48.929Z,13.70
2022-11-23T07:25:52.117Z,13.90
2022-11-23T07:26:54.377Z,13.85
2022-11-23T07:27:58.293Z,13.73
2022-11-23T07:29:01.545Z,14.00
2022-11-23T07:30:04.516Z,14.23
2022-11-23T07:31:08.063Z,13.80
2022-11-23T07:32:10.287Z,14.57
2022-11-23T07:33:14.436Z,14.73
2022-11-23T07:34:17.473Z,14.02
2022-11-23T07:35:21.015Z,13.90
2022-11-23T07:36:25.713Z,14.00
2022-11-23T07:37:27.881Z,13.23
2022-11-23T07:38:31.904Z,13.50
2022-11-23T07:39:56.255Z,13.60
2022-11-23T07:41:01.741Z,14.20
2022-11-23T07:42:44.484Z,12.95
2022-11-23T07:43:46.032Z,12.68
2022-11-23T07:44:48.749Z,12.80
2022-11-23T07:45:51.884Z,13.57
2022-11-23T07:46:54.342Z,12.45
2022-11-23T07:48:01.546Z,13.48
2022-11-23T07:49:04.768Z,12.63
2022-11-23T07:50:08.879Z,13.50
2022-11-23T07:51:12.039Z,13.02
2022-11-23T07:52:15.536Z,12.35
2022-11-23T07:53:18.775Z,12.40
2022-11-23T07:54:23.760Z,12.63
2022-11-23T07:55:28.467Z,12.52
2022-11-23T07:56:30.673Z,13.18
2022-11-23T07:57:33.943Z,12.75
2022-11-23T07:58:36.131Z,12.82
2022-11-23T07:59:39.753Z,13.45
2022-11-23T08:00:42.955Z,13.30
2022-11-23T08:01:50.428Z,13.80
2022-11-23T08:03:26.104Z,13.23
2022-11-23T08:04:18.665Z,13.35
2022-11-23T08:05:21.583Z,12.38
2022-11-23T08:06:24.839Z,11.93
2022-11-23T08:07:28.471Z,12.68
2022-11-23T08:08:31.720Z,12.25
2022-11-23T08:09:33.927Z,12.70
2022-11-23T08:10:43.485Z,12.23
2022-11-23T08:11:47.354Z,12.02
2022-11-23T08:12:50.991Z,12.07
2022-11-23T08:13:53.352Z,12.55
2022-11-23T08:14:56.567Z,11.75
2022-11-23T08:15:58.879Z,12.18
2022-11-23T08:17:02.169Z,11.77
2022-11-23T08:18:04.825Z,11.15
2022-11-23T08:19:08.479Z,12.18
2022-11-23T08:20:11.408Z,11.90
2022-11-23T08:21:14.687Z,12.02
2022-11-23T08:22:18.386Z,11.60
2022-11-23T08:23:23.228Z,12.20
2022-11-23T08:24:26.495Z,10.82
2022-11-23T08:25:30.770Z,11.75
2022-11-23T08:26:33.076Z,10.57
2022-11-23T08:27:36.233Z,11.10
2022-11-23T08:28:40.020Z,11.13
2022-11-23T08:29:43.310Z,11.35
2022-11-23T08:30:46.970Z,10.85
2022-11-23T08:31:49.157Z,10.32
2022-11-23T08:32:52.313Z,11.05
2022-11-23T08:33:58.919Z,11.27
2022-11-23T08:35:07.221Z,11.52
2022-11-23T08:36:09.629Z,11.10
2022-11-23T08:37:12.805Z,10.48
2022-11-23T08:38:16.077Z,10.23
2022-11-23T08:39:19.667Z,10.52
2022-11-23T08:40:25.635Z,10.52
2022-11-23T08:41:28.107Z,10.45
2022-11-23T08:42:31.310Z,11.15
2022-11-23T08:43:34.954Z,10.32
2022-11-23T08:44:37.190Z,10.68
2022-11-23T08:45:40.385Z,10.82
2022-11-23T08:46:42.630Z,10.65
2022-11-23T08:47:45.879Z,10.50
2022-11-23T08:48:49.162Z,10.27
2022-11-23T08:49:51.321Z,10.02
2022-11-23T08:50:55.039Z,10.18
2022-11-23T08:51:58.259Z,9.77
2022-11-23T08:53:01.638Z,10.00
2022-11-23T08:54:05.002Z,10.65
2022-11-23T08:55:09.497Z,10.20
2022-11-23T08:56:12.688Z,10.57
2022-11-23T08:57:16.054Z,10.10
2022-11-23T08:58:18.614Z,10.15
2022-11-23T08:59:21.798Z,10.18
2022-11-23T09:00:25.248Z,10.07
2022-11-23T09:01:28.477Z,10.07
2022-11-23T09:02:31.695Z,9.93
2022-11-23T09:03:33.940Z,9.18
2022-11-23T09:04:37.292Z,9.48
2022-11-23T09:05:39.736Z,9.27
2022-11-23T09:06:42.930Z,9.35
2022-11-23T09:07:45.130Z,9.15
2022-11-23T09:08:48.378Z,8.77
2022-11-23T09:09:51.620Z,8.73
2022-11-23T09:10:56.204Z,9.05
2022-11-23T09:11:59.389Z,9.07
2022-11-23T09:13:01.650Z,8.90
2022-11-23T09:14:04.927Z,8.55
2022-11-23T09:15:07.938Z,7.93
2022-11-23T09:16:11.253Z,7.88
2022-11-23T09:17:14.442Z,7.57
2022-11-23T09:18:17.779Z,7.72
2022-11-23T09:19:21.994Z,7.75
2022-11-23T09:20:25.236Z,6.90
2022-11-23T09:21:33.320Z,7.25
2022-11-23T09:22:36.554Z,7.60
2022-11-23T09:23:39.706Z,7.25
2022-11-23T09:24:43.005Z,7.25
2022-11-23T09:25:48.417Z,7.28
2022-11-23T09:26:53.134Z,6.93
2022-11-23T09:27:59.584Z,6.20
2022-11-23T09:29:02.892Z,6.38
2022-11-23T09:30:07.201Z,6.78
2022-11-23T09:31:10.479Z,6.32
2022-11-23T09:32:13.629Z,6.65
2022-11-23T09:33:17.193Z,6.50
2022-11-23T09:34:20.492Z,6.50
2022-11-23T09:35:22.724Z,6.35
2022-11-23T09:36:26.198Z,6.53
2022-11-23T09:37:29.407Z,5.88
2022-11-23T09:38:55.099Z,6.35
2022-11-23T09:39:55.991Z,6.38
2022-11-23T09:41:09.093Z,6.47
2022-11-23T09:42:46.834Z,6.13
2022-11-23T09:44:03.269Z,6.13
2022-11-23T09:45:18.974Z,6.38
2022-11-23T09:46:36.858Z,6.40
2022-11-23T09:47:56.222Z,5.90
2022-11-23T09:49:21.836Z,6.20
2022-11-23T09:50:29.397Z,6.55
2022-11-23T09:51:32.683Z,6.50
2022-11-23T09:52:37.555Z,6.35
2022-11-23T09:53:45.836Z,6.10
2022-11-23T09:54:50.954Z,6.05
2022-11-23T09:55:57.159Z,5.90
2022-11-23T09:57:02.096Z,5.90
2022-11-23T09:58:08.075Z,6.30
2022-11-23T09:59:19.448Z,5.65
2022-11-23T10:00:24.617Z,5.95
2022-11-23T10:01:30.449Z,6.35
2022-11-23T10:02:40.559Z,5.88
2022-11-23T10:03:49.133Z,6.13
2022-11-23T10:04:54.773Z,5.75
2022-11-23T10:06:06.188Z,6.32
2022-11-23T10:07:25.731Z,5.72
2022-11-23T10:08:38.025Z,5.80
2022-11-23T10:09:55.427Z,6.20
2022-11-23T10:11:08.106Z,6.00
2022-11-23T10:12:23.864Z,5.95
2022-11-23T10:13:37.924Z,5.05
2022-11-23T10:14:54.512Z,5.88
2022-11-23T10:16:23.370Z,5.63
2022-11-23T10:17:35.590Z,5.60
2022-11-23T10:18:54.738Z,6.05
2022-11-23T10:20:18.378Z,5.20
2022-11-23T10:21:32.105Z,5.78
2022-11-23T10:22:43.122Z,5.43
2022-11-23T10:23:56.614Z,6.10
2022-11-23T10:25:03.217Z,5.70
2022-11-23T10:26:13.474Z,5.93
2022-11-23T10:27:19.438Z,5.13
2022-11-23T10:28:23.025Z,5.68
2022-11-23T10:29:31.408Z,5.57
2022-11-23T10:30:33.599Z,5.32
2022-11-23T10:31:37.785Z,5.03
2022-11-23T10:32:47.176Z,5.43
2022-11-23T10:33:55.648Z,5.88
2022-11-23T10:35:05.329Z,6.00
2022-11-23T10:36:11.125Z,4.80
2022-11-23T10:37:16.066Z,5.40
2022-11-23T10:38:20.787Z,5.38
2022-11-23T10:39:25.722Z,5.50
2022-11-23T10:40:30.760Z,5.43
2022-11-23T10:41:34.018Z,6.18
2022-11-23T10:42:41.678Z,5.13
2022-11-23T10:43:49.045Z,5.15
2022-11-23T10:44:56.564Z,5.00
2022-11-23T10:46:26.497Z,5.07
2022-11-23T10:47:41.795Z,4.55
2022-11-23T10:48:44.931Z,5.35
2022-11-23T10:50:00.205Z,4.65
2022-11-23T10:51:16.692Z,4.80
2022-11-23T10:52:30.279Z,4.85
2022-11-23T10:53:33.891Z,5.30
2022-11-23T10:54:40.353Z,5.55
2022-11-23T10:55:53.070Z,5.13
2022-11-23T10:56:57.490Z,4.70
2022-11-23T10:58:00.659Z,4.88
2022-11-23T10:59:03.819Z,4.88
2022-11-23T11:00:19.550Z,5.03
2022-11-23T11:01:24.539Z,5.15
2022-11-23T11:02:27.895Z,5.22
2022-11-23T11:03:33.084Z,4.40
2022-11-23T11:04:36.249Z,5.03
2022-11-23T11:07:27.340Z,4.63
2022-11-23T11:08:34.166Z,4.78
2022-11-23T11:09:36.373Z,4.93
2022-11-23T11:10:42.408Z,4.70
2022-11-23T11:11:48.432Z,4.78
2022-11-23T11:12:53.017Z,5.22
2022-11-23T11:14:16.579Z,5.45
2022-11-23T11:15:20.260Z,5.18
2022-11-23T11:16:27.805Z,4.90
2022-11-23T11:17:32.362Z,5.45
2022-11-23T11:18:37.770Z,5.20
2022-11-23T11:19:39.971Z,5.00
2022-11-23T11:20:46.564Z,5.60
2022-11-23T11:21:50.041Z,5.65
2022-11-23T11:22:53.379Z,5.35
2022-11-23T11:24:01.847Z,5.68
2022-11-23T11:25:06.267Z,5.75
2022-11-23T11:26:19.419Z,5.95
2022-11-23T11:27:24.372Z,5.90
2022-11-23T11:28:36.630Z,5.47
2022-11-23T11:29:47.819Z,5.75
2022-11-23T11:31:00.687Z,5.03
2022-11-23T11:32:07.259Z,5.13
2022-11-23T11:33:15.050Z,5.70
2022-11-23T11:34:23.744Z,5.03
2022-11-23T11:35:30.159Z,5.07
2022-11-23T11:36:39.058Z,5.10
2022-11-23T11:37:44.785Z,5.07
2022-11-23T11:39:17.223Z,5.00
2022-11-23T11:40:22.791Z,5.57
2022-11-23T11:41:28.099Z,5.22
2022-11-23T11:42:37.709Z,4.90
2022-11-23T11:43:45.936Z,4.80
2022-11-23T11:44:54.106Z,4.22
2022-11-23T11:46:27.862Z,4.28
2022-11-23T11:47:35.368Z,4.70
2022-11-23T11:48:43.143Z,5.03
2022-11-23T11:49:49.610Z,4.32
2022-11-23T11:50:54.907Z,5.10
2022-11-23T11:52:06.563Z,5.00
2022-11-23T11:53:14.082Z,4.70
2022-11-23T11:54:22.000Z,4.50
2022-11-23T11:55:29.454Z,4.13
2022-11-23T11:56:39.481Z,3.85
2022-11-23T11:57:47.239Z,4.15
2022-11-23T11:58:57.821Z,4.28
2022-11-23T12:00:04.040Z,4.38
2022-11-23T12:01:20.829Z,4.30
2022-11-23T12:02:25.443Z,4.75
2022-11-23T12:03:41.431Z,4.20
2022-11-23T12:04:51.285Z,4.32
2022-11-23T12:05:57.191Z,4.38
2022-11-23T12:07:10.989Z,4.50
2022-11-23T12:08:19.732Z,4.30
2022-11-23T12:09:26.516Z,4.47
2022-11-23T12:10:35.109Z,4.57
2022-11-23T12:11:37.391Z,4.47
2022-11-23T12:12:40.968Z,4.50
2022-11-23T12:13:46.995Z,4.47
2022-11-23T12:14:49.265Z,4.55
2022-11-23T12:16:02.404Z,4.70
2022-11-23T12:17:32.575Z,4.30
2022-11-23T12:18:48.724Z,4.45
2022-11-23T12:19:56.882Z,4.50
2022-11-23T12:21:05.168Z,4.00
2022-11-23T12:22:31.461Z,3.95
2022-11-23T12:23:46.465Z,4.40
2022-11-23T12:25:04.492Z,4.47
2022-11-23T12:26:20.897Z,4.20
2022-11-23T12:27:30.837Z,4.10
2022-11-23T12:28:48.998Z,3.90
2022-11-23T12:30:04.611Z,4.10
2022-11-23T12:31:18.238Z,4.00
2022-11-23T12:32:30.331Z,3.90
2022-11-23T12:33:49.125Z,3.72
2022-11-23T12:35:24.618Z,3.75
2022-11-23T12:36:50.414Z,3.35
2022-11-23T12:38:06.057Z,3.42
2022-11-23T12:39:21.286Z,3.17
2022-11-23T12:40:45.524Z,3.83
2022-11-23T12:41:54.147Z,3.35
2022-11-23T12:43:02.402Z,3.38
2022-11-23T12:44:25.218Z,3.20
2022-11-23T12:45:50.444Z,3.33
2022-11-23T12:47:01.654Z,3.40
2022-11-23T12:48:21.960Z,3.58
2022-11-23T12:49:38.991Z,3.85
2022-11-23T12:50:49.083Z,3.33
2022-11-23T12:52:01.301Z,3.60
2022-11-23T12:53:16.688Z,3.75
2022-11-23T12:54:33.260Z,3.33
2022-11-23T12:55:46.755Z,3.53
2022-11-23T12:57:15.137Z,3.28
2022-11-23T12:58:24.510Z,3.80
2022-11-23T12:59:36.688Z,3.58
2022-11-23T13:00:46.412Z,3.63
2022-11-23T13:01:53.481Z,3.72
2022-11-23T13:03:30.820Z,3.60
2022-11-23T13:05:07.377Z,3.42
2022-11-23T13:07:05.522Z,3.40
2022-11-23T13:08:44.881Z,3.38
2022-11-23T13:10:09.145Z,3.70
2022-11-23T13:11:29.190Z,3.17
2022-11-23T13:12:45.011Z,3.95
2022-11-23T13:14:04.976Z,3.33
2022-11-23T13:15:25.505Z,3.72
2022-11-23T13:16:57.846Z,3.67
2022-11-23T13:18:12.197Z,3.17
2022-11-23T13:19:35.118Z,3.25
2022-11-23T13:20:56.591Z,3.08
2022-11-23T13:22:01.121Z,3.10
2022-11-23T13:23:06.456Z,3.17
2022-11-23T13:24:28.802Z,3.17
2022-11-23T13:25:32.698Z,3.95
2022-11-23T13:26:35.982Z,3.88
2022-11-23T13:27:58.362Z,3.63
2022-11-23T13:29:21.829Z,3.38
2022-11-23T13:30:51.943Z,3.40
2022-11-23T13:32:42.816Z,3.40
2022-11-23T13:34:51.131Z,3.63
2022-11-23T13:35:59.249Z,3.40
2022-11-23T13:37:13.528Z,2.78
2022-11-23T13:38:25.947Z,3.63
2022-11-23T13:40:03.947Z,3.40
2022-11-23T13:41:56.065Z,3.38
2022-11-23T13:43:03.534Z,3.38
2022-11-23T13:44:12.301Z,2.80
2022-11-23T13:45:26.155Z,3.30
2022-11-23T13:46:29.029Z,3.00
2022-11-23T13:47:32.308Z,2.97
2022-11-23T13:48:59.791Z,3.40
2022-11-23T13:50:18.938Z,3.47
2022-11-23T13:51:30.272Z,3.30
2022-11-23T13:52:33.511Z,3.13
2022-11-23T13:53:40.261Z,3.13
2022-11-23T13:54:54.670Z,2.88
2022-11-23T13:55:59.096Z,3.00
2022-11-23T13:57:06.369Z,2.90
2022-11-23T13:58:37.842Z,3.00
2022-11-23T13:59:41.099Z,2.83
2022-11-23T14:00:50.811Z,2.95
2022-11-23T14:02:35.111Z,3.38
2022-11-23T14:03:52.360Z,3.33
2022-11-23T14:05:54.923Z,2.88
2022-11-23T14:07:01.670Z,3.60
2022-11-23T14:08:06.396Z,3.83
2022-11-23T14:09:16.607Z,3.50
2022-11-23T14:10:23.946Z,3.58
2022-11-23T14:11:27.423Z,3.90
2022-11-23T14:12:38.333Z,3.08
2022-11-23T14:13:47.358Z,3.13
2022-11-23T14:14:56.643Z,3.67
2022-11-23T14:16:02.440Z,4.15
2022-11-23T14:17:33.572Z,3.30
2022-11-23T14:18:56.305Z,3.80
2022-11-23T14:20:17.583Z,3.15
2022-11-23T14:21:26.723Z,3.35
2022-11-23T14:22:41.624Z,3.53
2022-11-23T14:24:41.730Z,3.30
2022-11-23T14:25:53.914Z,3.15
2022-11-23T14:27:38.982Z,3.10
2022-11-23T14:28:46.392Z,2.90
2022-11-23T14:30:07.084Z,3.17
2022-11-23T14:31:22.831Z,3.10
2022-11-23T14:32:37.157Z,2.90
2022-11-23T14:33:44.806Z,2.70
2022-11-23T14:34:57.335Z,3.25
2022-11-23T14:36:13.543Z,2.85
2022-11-23T14:37:32.809Z,3.05
2022-11-23T14:38:54.241Z,3.10
2022-11-23T14:40:06.952Z,2.40
2022-11-23T14:41:13.375Z,3.10
2022-11-23T14:42:20.709Z,3.10
2022-11-23T14:43:24.688Z,2.38
2022-11-23T14:44:32.949Z,2.90
2022-11-23T14:45:39.109Z,2.90